createdAt,value
2017-03-03T00:00:16.866Z,23.57
2017-03-03T00:00:57.358Z,23.47
2017-03-03T00:01:37.863Z,23.41
2017-03-03T00:02:18.363Z,23.47
2017-03-03T00:02:58.865Z,23.4
2017-03-03T00:03:39.349Z,23.4
2017-03-03T00:04:19.855Z,23.35
2017-03-03T00:05:00.353Z,23.42
2017-03-03T00:05:40.838Z,23.42
2017-03-03T00:06:21.330Z,23.38
2017-03-03T00:07:01.828Z,23.44
2017-03-03T00:07:42.313Z,23.37
2017-03-03T00:08:22.823Z,23.38
2017-03-03T00:09:03.303Z,23.53
2017-03-03T00:09:43.809Z,23.44
2017-03-03T00:10:24.302Z,23.44
2017-03-03T00:11:04.793Z,23.4
2017-03-03T00:11:45.281Z,23.45
2017-03-03T00:12:25.767Z,23.41
2017-03-03T00:13:06.507Z,23.4
2017-03-03T00:13:46.994Z,23.38
2017-03-03T00:14:27.494Z,23.37
2017-03-03T00:15:08.008Z,23.42
2017-03-03T00:15:48.493Z,23.42
2017-03-03T00:16:29.001Z,23.41
2017-03-03T00:17:09.513Z,23.37
2017-03-03T00:17:50.021Z,23.37
2017-03-03T00:18:30.503Z,23.4
2017-03-03T00:19:10.976Z,23.42
2017-03-03T00:19:51.469Z,23.4
2017-03-03T00:20:31.950Z,23.41
2017-03-03T00:21:12.525Z,23.41
2017-03-03T00:21:53.019Z,23.4
2017-03-03T00:22:33.506Z,23.4
2017-03-03T00:23:13.999Z,23.47
2017-03-03T00:23:54.501Z,23.4
2017-03-03T00:24:34.996Z,23.37
2017-03-03T00:25:15.497Z,23.34
2017-03-03T00:25:55.983Z,23.35
2017-03-03T00:26:36.471Z,23.42
2017-03-03T00:27:16.966Z,23.45
2017-03-03T00:27:57.463Z,23.42
2017-03-03T00:28:37.937Z,23.42
2017-03-03T00:29:18.429Z,23.5
2017-03-03T00:29:58.924Z,23.53
2017-03-03T00:30:39.430Z,23.48
2017-03-03T00:31:19.922Z,23.53
2017-03-03T00:32:00.413Z,23.45
2017-03-03T00:32:40.905Z,23.48
2017-03-03T00:33:21.530Z,23.45
2017-03-03T00:34:02.008Z,23.37
2017-03-03T00:34:42.492Z,23.29
2017-03-03T00:35:22.980Z,23.4
2017-03-03T00:36:03.485Z,23.4
2017-03-03T00:36:43.981Z,23.32
2017-03-03T00:37:24.482Z,23.37
2017-03-03T00:38:04.974Z,23.35
2017-03-03T00:38:45.460Z,23.4
2017-03-03T00:39:25.946Z,23.37
2017-03-03T00:40:06.437Z,23.4
2017-03-03T00:40:46.936Z,23.41
2017-03-03T00:41:27.419Z,23.41
2017-03-03T00:42:07.924Z,23.37
2017-03-03T00:42:48.414Z,23.42
2017-03-03T00:43:28.904Z,23.38
2017-03-03T00:44:09.399Z,23.37
2017-03-03T00:44:49.893Z,23.42
2017-03-03T00:45:30.375Z,23.44
2017-03-03T00:46:10.857Z,23.42
2017-03-03T00:46:51.348Z,23.37
2017-03-03T00:47:31.843Z,23.4
2017-03-03T00:48:12.338Z,23.29
2017-03-03T00:48:52.823Z,23.37
2017-03-03T00:49:33.322Z,23.42
2017-03-03T00:50:13.820Z,23.42
2017-03-03T00:50:54.311Z,23.37
2017-03-03T00:51:34.802Z,23.4
2017-03-03T00:52:15.303Z,23.45
2017-03-03T00:52:55.791Z,23.45
2017-03-03T00:53:36.276Z,23.42
2017-03-03T00:54:16.768Z,23.45
2017-03-03T00:54:57.263Z,23.45
2017-03-03T00:55:37.753Z,23.42
2017-03-03T00:56:18.240Z,23.47
2017-03-03T00:56:58.734Z,23.44
2017-03-03T00:57:39.234Z,23.42
2017-03-03T00:58:19.717Z,23.38
2017-03-03T00:59:00.212Z,23.41
2017-03-03T00:59:40.706Z,23.42
2017-03-03T01:00:21.195Z,23.44
2017-03-03T01:01:01.698Z,23.44
2017-03-03T01:01:42.192Z,23.4
2017-03-03T01:02:22.683Z,23.38
2017-03-03T01:03:03.179Z,23.42
2017-03-03T01:03:43.672Z,23.42
2017-03-03T01:04:24.152Z,23.42
2017-03-03T01:05:04.637Z,23.38
2017-03-03T01:05:45.128Z,23.42
2017-03-03T01:06:25.623Z,23.4
2017-03-03T01:07:06.117Z,23.37
2017-03-03T01:07:46.601Z,23.4
2017-03-03T01:08:27.073Z,23.4
2017-03-03T01:09:07.565Z,23.37
2017-03-03T01:09:48.046Z,23.42
2017-03-03T01:10:28.533Z,23.42
2017-03-03T01:11:09.020Z,23.41
2017-03-03T01:11:49.512Z,23.32
2017-03-03T01:12:30.020Z,23.42
2017-03-03T01:13:10.513Z,23.41
2017-03-03T01:13:51.011Z,23.35
2017-03-03T01:14:31.496Z,23.42
2017-03-03T01:15:12.006Z,23.37
2017-03-03T01:15:52.489Z,23.4
2017-03-03T01:16:32.977Z,23.44
2017-03-03T01:17:13.459Z,23.34
2017-03-03T01:17:53.947Z,23.4
2017-03-03T01:18:34.456Z,23.29
2017-03-03T01:19:14.934Z,23.4
2017-03-03T01:19:55.422Z,23.38
2017-03-03T01:20:35.918Z,23.41
2017-03-03T01:21:16.402Z,23.35
2017-03-03T01:21:56.905Z,23.29
2017-03-03T01:22:37.380Z,23.32
2017-03-03T01:23:17.866Z,23.38
2017-03-03T01:23:58.355Z,23.32
2017-03-03T01:24:38.849Z,23.38
2017-03-03T01:25:19.345Z,23.32
2017-03-03T01:25:59.835Z,23.4
2017-03-03T01:26:40.330Z,23.29
2017-03-03T01:27:20.823Z,23.35
2017-03-03T01:28:01.308Z,23.29
2017-03-03T01:28:41.798Z,23.4
2017-03-03T01:29:22.505Z,23.34
2017-03-03T01:30:02.998Z,23.34
2017-03-03T01:30:43.483Z,23.29
2017-03-03T01:31:23.977Z,23.34
2017-03-03T01:32:04.467Z,23.44
2017-03-03T01:32:44.967Z,23.37
2017-03-03T01:33:25.455Z,23.34
2017-03-03T01:34:05.947Z,23.26
2017-03-03T01:34:46.439Z,23.29
2017-03-03T01:35:26.925Z,23.32
2017-03-03T01:36:07.421Z,23.45
2017-03-03T01:36:47.907Z,23.4
2017-03-03T01:37:28.413Z,23.41
2017-03-03T01:38:08.918Z,23.32
2017-03-03T01:38:49.413Z,23.32
2017-03-03T01:39:29.915Z,23.42
2017-03-03T01:40:10.391Z,23.37
2017-03-03T01:40:50.890Z,23.34
2017-03-03T01:41:31.377Z,23.35
2017-03-03T01:42:11.885Z,23.38
2017-03-03T01:42:52.371Z,23.35
2017-03-03T01:43:32.864Z,23.35
2017-03-03T01:44:13.357Z,23.32
2017-03-03T01:44:53.847Z,23.42
2017-03-03T01:45:34.351Z,23.4
2017-03-03T01:46:14.855Z,23.41
2017-03-03T01:46:55.355Z,23.47
2017-03-03T01:47:35.850Z,23.32
2017-03-03T01:48:16.348Z,23.37
2017-03-03T01:48:56.856Z,23.35
2017-03-03T01:49:37.355Z,23.42
2017-03-03T01:50:17.846Z,23.37
2017-03-03T01:50:58.345Z,23.4
2017-03-03T01:51:38.849Z,23.34
2017-03-03T01:52:19.371Z,23.34
2017-03-03T01:52:59.871Z,23.34
2017-03-03T01:53:40.363Z,23.38
2017-03-03T01:54:21.013Z,23.29
2017-03-03T01:55:01.497Z,23.4
2017-03-03T01:55:42.004Z,23.25
2017-03-03T01:56:22.498Z,23.4
2017-03-03T01:57:03.005Z,23.38
2017-03-03T01:57:43.489Z,23.38
2017-03-03T01:58:23.977Z,23.35
2017-03-03T01:59:04.464Z,23.4
2017-03-03T01:59:44.968Z,23.38
2017-03-03T02:00:25.460Z,23.41
2017-03-03T02:01:05.953Z,23.35
2017-03-03T02:01:46.448Z,23.4
2017-03-03T02:02:26.938Z,23.37
2017-03-03T02:03:07.447Z,23.32
2017-03-03T02:03:47.935Z,23.29
2017-03-03T02:04:28.444Z,23.4
2017-03-03T02:05:08.947Z,23.29
2017-03-03T02:05:49.442Z,23.37
2017-03-03T02:06:29.934Z,23.34
2017-03-03T02:07:10.419Z,23.35
2017-03-03T02:07:50.913Z,23.32
2017-03-03T02:08:31.407Z,23.4
2017-03-03T02:09:11.892Z,23.37
2017-03-03T02:09:52.392Z,23.41
2017-03-03T02:10:32.894Z,23.32
2017-03-03T02:11:13.383Z,23.29
2017-03-03T02:11:53.888Z,23.34
2017-03-03T02:12:34.377Z,23.34
2017-03-03T02:13:14.879Z,23.34
2017-03-03T02:13:55.375Z,23.37
2017-03-03T02:14:35.877Z,23.4
2017-03-03T02:15:16.373Z,23.38
2017-03-03T02:15:56.856Z,23.35
2017-03-03T02:16:37.351Z,23.38
2017-03-03T02:17:17.848Z,23.29
2017-03-03T02:17:58.334Z,23.4
2017-03-03T02:18:38.809Z,23.28
2017-03-03T02:19:19.305Z,23.25
2017-03-03T02:19:59.801Z,23.34
2017-03-03T02:20:40.293Z,23.26
2017-03-03T02:21:20.783Z,23.28
2017-03-03T02:22:01.279Z,23.37
2017-03-03T02:22:41.764Z,23.37
2017-03-03T02:23:22.258Z,23.35
2017-03-03T02:24:02.747Z,23.38
2017-03-03T02:24:43.228Z,23.4
2017-03-03T02:25:24.003Z,23.34
2017-03-03T02:26:04.497Z,23.37
2017-03-03T02:26:44.986Z,23.32
2017-03-03T02:27:25.479Z,23.38
2017-03-03T02:28:05.971Z,23.44
2017-03-03T02:28:46.467Z,23.37
2017-03-03T02:29:26.971Z,23.38
2017-03-03T02:30:07.464Z,23.34
2017-03-03T02:30:47.963Z,23.32
2017-03-03T02:31:28.476Z,23.37
2017-03-03T02:32:08.972Z,23.34
2017-03-03T02:32:49.460Z,23.44
2017-03-03T02:33:29.971Z,23.37
2017-03-03T02:34:10.470Z,23.37
2017-03-03T02:34:50.969Z,23.42
2017-03-03T02:35:31.458Z,23.44
2017-03-03T02:36:11.952Z,23.45
2017-03-03T02:36:52.459Z,23.37
2017-03-03T02:37:32.967Z,23.37
2017-03-03T02:38:13.455Z,23.4
2017-03-03T02:38:53.962Z,23.35
2017-03-03T02:39:34.458Z,23.4
2017-03-03T02:40:14.970Z,23.4
2017-03-03T02:40:55.466Z,23.28
2017-03-03T02:41:35.964Z,23.34
2017-03-03T02:42:16.460Z,23.28
2017-03-03T02:42:56.955Z,23.22
2017-03-03T02:43:37.461Z,23.29
2017-03-03T02:44:17.961Z,23.34
2017-03-03T02:44:58.443Z,23.38
2017-03-03T02:45:38.948Z,23.28
2017-03-03T02:46:19.441Z,23.42
2017-03-03T02:46:59.955Z,23.37
2017-03-03T02:47:40.448Z,23.35
2017-03-03T02:48:20.951Z,23.35
2017-03-03T02:49:01.445Z,23.29
2017-03-03T02:49:41.934Z,23.38
2017-03-03T02:50:22.425Z,23.29
2017-03-03T02:51:02.923Z,23.38
2017-03-03T02:51:43.413Z,23.34
2017-03-03T02:52:23.924Z,23.32
2017-03-03T02:53:04.422Z,23.4
2017-03-03T02:53:44.920Z,23.34
2017-03-03T02:54:25.410Z,23.41
2017-03-03T02:55:05.889Z,23.4
2017-03-03T02:55:46.389Z,23.37
2017-03-03T02:56:26.882Z,23.38
2017-03-03T02:57:07.388Z,23.38
2017-03-03T02:57:47.885Z,23.34
2017-03-03T02:58:28.386Z,23.34
2017-03-03T02:59:08.881Z,23.38
2017-03-03T02:59:49.390Z,23.38
2017-03-03T03:00:29.887Z,23.32
2017-03-03T03:01:10.393Z,23.26
2017-03-03T03:01:50.882Z,23.18
2017-03-03T03:02:31.368Z,23.29
2017-03-03T03:03:11.865Z,23.32
2017-03-03T03:03:52.360Z,23.35
2017-03-03T03:04:32.848Z,23.26
2017-03-03T03:05:13.341Z,23.32
2017-03-03T03:05:53.838Z,23.28
2017-03-03T03:06:34.360Z,23.28
2017-03-03T03:07:14.834Z,23.29
2017-03-03T03:07:55.331Z,23.26
2017-03-03T03:08:35.832Z,23.35
2017-03-03T03:09:16.327Z,23.37
2017-03-03T03:09:56.828Z,23.37
2017-03-03T03:10:37.333Z,23.34
2017-03-03T03:11:17.840Z,23.35
2017-03-03T03:11:58.336Z,23.4
2017-03-03T03:12:38.831Z,23.37
2017-03-03T03:13:19.322Z,23.41
2017-03-03T03:13:59.806Z,23.38
2017-03-03T03:14:40.301Z,23.42
2017-03-03T03:15:20.794Z,23.34
2017-03-03T03:16:01.284Z,23.26
2017-03-03T03:16:41.781Z,23.32
2017-03-03T03:17:22.276Z,23.38
2017-03-03T03:19:09.789Z,23.4
2017-03-03T03:19:50.280Z,23.34
2017-03-03T03:20:30.780Z,23.4
2017-03-03T03:21:11.247Z,23.38
2017-03-03T03:21:51.740Z,23.38
2017-03-03T03:22:32.270Z,23.34
2017-03-03T03:23:12.765Z,23.34
2017-03-03T03:23:53.263Z,23.4
2017-03-03T03:24:33.759Z,23.35
2017-03-03T03:25:14.244Z,23.37
2017-03-03T03:25:54.731Z,23.29
2017-03-03T03:26:35.256Z,23.32
2017-03-03T03:27:15.759Z,23.32
2017-03-03T03:27:56.238Z,23.37
2017-03-03T03:28:36.729Z,23.32
2017-03-03T03:29:17.226Z,23.24
2017-03-03T03:29:57.733Z,23.25
2017-03-03T03:30:38.261Z,23.32
2017-03-03T03:31:18.749Z,23.19
2017-03-03T03:31:59.232Z,23.18
2017-03-03T03:32:39.720Z,23.22
2017-03-03T03:33:20.206Z,23.28
2017-03-03T03:34:00.694Z,23.28
2017-03-03T03:34:41.197Z,23.32
2017-03-03T03:35:21.677Z,23.37
2017-03-03T03:36:02.174Z,23.32
2017-03-03T03:36:42.655Z,23.37
2017-03-03T03:37:23.146Z,23.37
2017-03-03T03:38:03.643Z,23.37
2017-03-03T03:38:44.129Z,23.35
2017-03-03T03:39:24.606Z,23.34
2017-03-03T03:40:05.099Z,23.35
2017-03-03T03:40:45.587Z,23.29
2017-03-03T03:41:26.075Z,23.28
2017-03-03T03:42:06.569Z,23.28
2017-03-03T03:42:47.066Z,23.19
2017-03-03T03:43:27.560Z,23.35
2017-03-03T03:44:08.059Z,23.32
2017-03-03T03:44:48.557Z,23.29
2017-03-03T03:45:29.073Z,23.29
2017-03-03T03:46:09.566Z,23.29
2017-03-03T03:46:50.057Z,23.19
2017-03-03T03:47:30.561Z,23.24
2017-03-03T03:48:11.065Z,23.21
2017-03-03T03:48:51.567Z,23.25
2017-03-03T03:49:32.060Z,23.18
2017-03-03T03:50:12.559Z,23.25
2017-03-03T03:50:53.050Z,23.22
2017-03-03T03:51:33.637Z,23.16
2017-03-03T03:52:14.117Z,23.26
2017-03-03T03:52:54.615Z,23.26
2017-03-03T03:53:35.114Z,23.24
2017-03-03T03:54:15.604Z,23.24
2017-03-03T03:54:56.086Z,23.12
2017-03-03T03:55:36.582Z,23.26
2017-03-03T03:56:17.079Z,23.24
2017-03-03T03:56:57.554Z,23.21
2017-03-03T03:57:38.043Z,23.26
2017-03-03T03:58:18.533Z,23.28
2017-03-03T03:58:59.021Z,23.32
2017-03-03T03:59:39.510Z,23.28
2017-03-03T04:00:20.003Z,23.34
2017-03-03T04:01:00.486Z,23.26
2017-03-03T04:01:40.977Z,23.26
2017-03-03T04:02:21.457Z,23.29
2017-03-03T04:03:01.952Z,23.28
2017-03-03T04:03:42.449Z,23.28
2017-03-03T04:04:22.935Z,23.37
2017-03-03T04:05:03.423Z,23.4
2017-03-03T04:05:43.910Z,23.34
2017-03-03T04:06:24.400Z,23.32
2017-03-03T04:07:04.891Z,23.24
2017-03-03T04:07:45.379Z,23.37
2017-03-03T04:08:25.895Z,23.28
2017-03-03T04:09:06.393Z,23.25
2017-03-03T04:09:46.891Z,23.37
2017-03-03T04:10:27.380Z,23.35
2017-03-03T04:11:07.886Z,23.35
2017-03-03T04:11:48.396Z,23.26
2017-03-03T04:12:28.885Z,23.35
2017-03-03T04:13:09.384Z,23.26
2017-03-03T04:13:49.889Z,23.32
2017-03-03T04:14:30.378Z,23.32
2017-03-03T04:15:10.879Z,23.24
2017-03-03T04:15:51.385Z,23.34
2017-03-03T04:16:31.871Z,23.29
2017-03-03T04:17:12.358Z,23.21
2017-03-03T04:17:52.857Z,23.26
2017-03-03T04:18:33.336Z,23.34
2017-03-03T04:19:13.832Z,23.28
2017-03-03T04:19:54.327Z,23.19
2017-03-03T04:20:34.829Z,23.19
2017-03-03T04:21:15.332Z,23.18
2017-03-03T04:21:56.036Z,23.19
2017-03-03T04:22:36.523Z,23.32
2017-03-03T04:23:17.024Z,23.26
2017-03-03T04:23:57.508Z,23.26
2017-03-03T04:24:38.003Z,23.19
2017-03-03T04:25:18.497Z,23.32
2017-03-03T04:25:58.990Z,23.32
2017-03-03T04:26:39.483Z,23.26
2017-03-03T04:27:19.977Z,23.19
2017-03-03T04:28:00.467Z,23.19
2017-03-03T04:28:40.993Z,23.15
2017-03-03T04:29:21.467Z,23.28
2017-03-03T04:30:01.968Z,23.18
2017-03-03T04:30:42.465Z,23.26
2017-03-03T04:31:22.973Z,23.15
2017-03-03T04:32:03.468Z,23.16
2017-03-03T04:32:43.972Z,23.25
2017-03-03T04:33:24.457Z,23.25
2017-03-03T04:34:04.946Z,23.26
2017-03-03T04:34:45.432Z,23.24
2017-03-03T04:35:25.937Z,23.29
2017-03-03T04:36:06.430Z,23.24
2017-03-03T04:36:46.911Z,23.25
2017-03-03T04:37:27.421Z,23.29
2017-03-03T04:38:07.919Z,23.21
2017-03-03T04:38:48.415Z,23.24
2017-03-03T04:39:28.909Z,23.22
2017-03-03T04:40:09.414Z,23.24
2017-03-03T04:40:49.903Z,23.21
2017-03-03T04:41:30.399Z,23.28
2017-03-03T04:42:10.887Z,23.21
2017-03-03T04:42:51.390Z,23.21
2017-03-03T04:43:31.866Z,23.16
2017-03-03T04:44:12.351Z,23.26
2017-03-03T04:44:52.850Z,23.25
2017-03-03T04:45:33.334Z,23.22
2017-03-03T04:46:13.830Z,23.22
2017-03-03T04:46:54.307Z,23.24
2017-03-03T04:47:34.956Z,23.28
2017-03-03T04:48:15.449Z,23.29
2017-03-03T04:48:55.934Z,23.29
2017-03-03T04:49:36.426Z,23.19
2017-03-03T04:50:16.929Z,23.26
2017-03-03T04:50:57.416Z,23.29
2017-03-03T04:51:37.902Z,23.32
2017-03-03T04:52:18.400Z,23.12
2017-03-03T04:52:58.889Z,23.25
2017-03-03T04:53:39.378Z,23.21
2017-03-03T04:54:19.863Z,23.26
2017-03-03T04:55:00.350Z,23.18
2017-03-03T04:55:40.839Z,23.19
2017-03-03T04:56:21.337Z,23.19
2017-03-03T04:57:01.824Z,23.24
2017-03-03T04:57:42.319Z,23.21
2017-03-03T04:58:22.818Z,23.26
2017-03-03T04:59:03.305Z,23.24
2017-03-03T04:59:43.822Z,23.25
2017-03-03T05:00:24.307Z,23.21
2017-03-03T05:01:04.818Z,23.19
2017-03-03T05:01:45.290Z,23.21
2017-03-03T05:02:25.796Z,23.19
2017-03-03T05:03:06.281Z,23.15
2017-03-03T05:03:46.781Z,23.14
2017-03-03T05:04:27.285Z,23.26
2017-03-03T05:05:07.781Z,23.25
2017-03-03T05:05:48.287Z,23.19
2017-03-03T05:06:28.778Z,23.32
2017-03-03T05:07:09.264Z,23.29
2017-03-03T05:07:49.751Z,23.24
2017-03-03T05:08:30.258Z,23.28
2017-03-03T05:09:10.740Z,23.32
2017-03-03T05:09:51.235Z,23.26
2017-03-03T05:10:31.728Z,23.32
2017-03-03T05:11:12.226Z,23.28
2017-03-03T05:11:52.713Z,23.16
2017-03-03T05:12:33.205Z,23.18
2017-03-03T05:13:13.697Z,23.26
2017-03-03T05:13:54.186Z,23.32
2017-03-03T05:14:34.680Z,23.35
2017-03-03T05:15:15.174Z,23.28
2017-03-03T05:15:55.680Z,23.26
2017-03-03T05:16:36.176Z,23.18
2017-03-03T05:17:16.671Z,23.29
2017-03-03T05:17:57.166Z,23.32
2017-03-03T05:18:37.679Z,23.34
2017-03-03T05:19:18.172Z,23.32
2017-03-03T05:19:58.661Z,23.34
2017-03-03T05:20:39.150Z,23.32
2017-03-03T05:21:19.641Z,23.34
2017-03-03T05:22:00.143Z,23.28
2017-03-03T05:22:40.626Z,23.18
2017-03-03T05:23:21.124Z,23.29
2017-03-03T05:24:01.617Z,23.19
2017-03-03T05:24:42.113Z,23.24
2017-03-03T05:25:22.617Z,23.32
2017-03-03T05:26:03.115Z,23.34
2017-03-03T05:26:43.618Z,23.28
2017-03-03T05:27:24.109Z,23.32
2017-03-03T05:28:04.608Z,23.32
2017-03-03T05:28:45.089Z,23.29
2017-03-03T05:29:25.588Z,23.32
2017-03-03T05:30:06.066Z,23.37
2017-03-03T05:30:46.564Z,23.32
2017-03-03T05:31:27.060Z,23.26
2017-03-03T05:32:07.548Z,23.26
2017-03-03T05:32:48.037Z,23.16
2017-03-03T05:33:28.530Z,23.24
2017-03-03T05:34:09.030Z,23.21
2017-03-03T05:34:49.511Z,23.26
2017-03-03T05:35:29.995Z,23.16
2017-03-03T05:36:10.480Z,23.24
2017-03-03T05:36:50.976Z,23.21
2017-03-03T05:37:31.478Z,23.19
2017-03-03T05:38:11.954Z,23.26
2017-03-03T05:38:52.436Z,23.19
2017-03-03T05:39:32.944Z,23.19
2017-03-03T05:40:13.569Z,23.18
2017-03-03T05:40:54.053Z,23.18
2017-03-03T05:41:34.541Z,23.19
2017-03-03T05:42:15.025Z,23.15
2017-03-03T05:42:55.520Z,23.14
2017-03-03T05:43:36.017Z,23.24
2017-03-03T05:44:16.499Z,23.15
2017-03-03T05:44:56.986Z,23.18
2017-03-03T05:45:37.473Z,23.21
2017-03-03T05:46:17.959Z,23.14
2017-03-03T05:46:58.448Z,23.22
2017-03-03T05:47:38.943Z,23.28
2017-03-03T05:48:19.434Z,23.19
2017-03-03T05:48:59.917Z,23.28
2017-03-03T05:49:40.416Z,23.25
2017-03-03T05:50:20.910Z,23.25
2017-03-03T05:51:01.404Z,23.24
2017-03-03T05:51:41.919Z,23.18
2017-03-03T05:52:22.402Z,23.24
2017-03-03T05:53:02.890Z,23.22
2017-03-03T05:53:43.384Z,23.26
2017-03-03T05:54:23.879Z,23.19
2017-03-03T05:55:04.381Z,23.26
2017-03-03T05:55:44.857Z,23.28
2017-03-03T05:56:25.360Z,23.16
2017-03-03T05:57:05.849Z,23.19
2017-03-03T05:57:46.336Z,23.24
2017-03-03T05:58:26.823Z,23.24
2017-03-03T05:59:07.337Z,23.22
2017-03-03T05:59:47.833Z,23.21
2017-03-03T06:00:28.317Z,23.22
2017-03-03T06:01:08.803Z,23.19
2017-03-03T06:01:49.298Z,23.29
2017-03-03T06:02:29.796Z,23.28
2017-03-03T06:03:10.280Z,23.26
2017-03-03T06:03:50.773Z,23.32
2017-03-03T06:04:31.277Z,23.26
2017-03-03T06:05:11.764Z,23.19
2017-03-03T06:05:52.249Z,23.28
2017-03-03T06:06:32.734Z,23.24
2017-03-03T06:07:13.228Z,23.18
2017-03-03T06:07:53.727Z,23.14
2017-03-03T06:08:34.367Z,23.16
2017-03-03T06:09:14.873Z,23.18
2017-03-03T06:09:55.373Z,23.16
2017-03-03T06:10:35.864Z,23.19
2017-03-03T06:11:16.376Z,23.16
2017-03-03T06:11:56.861Z,23.16
2017-03-03T06:12:37.366Z,23.19
2017-03-03T06:13:17.870Z,23.16
2017-03-03T06:13:58.372Z,23.19
2017-03-03T06:14:38.874Z,23.15
2017-03-03T06:15:19.365Z,23.19
2017-03-03T06:15:59.861Z,23.15
2017-03-03T06:16:40.475Z,23.18
2017-03-03T06:17:20.989Z,23.19
2017-03-03T06:18:01.470Z,23.18
2017-03-03T06:18:41.963Z,23.18
2017-03-03T06:19:22.463Z,23.15
2017-03-03T06:20:02.967Z,23.14
2017-03-03T06:20:43.463Z,23.21
2017-03-03T06:21:23.956Z,23.18
2017-03-03T06:22:04.456Z,23.24
2017-03-03T06:22:44.969Z,23.19
2017-03-03T06:23:25.463Z,23.26
2017-03-03T06:24:05.948Z,23.28
2017-03-03T06:24:46.434Z,23.26
2017-03-03T06:25:26.921Z,23.34
2017-03-03T06:26:07.416Z,23.38
2017-03-03T06:26:47.908Z,23.32
2017-03-03T06:27:28.397Z,23.34
2017-03-03T06:28:08.912Z,23.29
2017-03-03T06:28:49.403Z,23.24
2017-03-03T06:29:29.909Z,23.28
2017-03-03T06:30:10.403Z,23.37
2017-03-03T06:30:50.907Z,23.35
2017-03-03T06:31:31.381Z,23.29
2017-03-03T06:32:11.874Z,23.38
2017-03-03T06:32:52.352Z,23.38
2017-03-03T06:33:32.853Z,23.26
2017-03-03T06:34:13.335Z,23.34
2017-03-03T06:34:53.838Z,23.35
2017-03-03T06:35:34.338Z,23.37
2017-03-03T06:36:14.844Z,23.38
2017-03-03T06:36:55.352Z,23.4
2017-03-03T06:37:35.851Z,23.41
2017-03-03T06:38:16.341Z,23.4
2017-03-03T06:38:57.083Z,23.42
2017-03-03T06:39:38.879Z,23.53
2017-03-03T06:40:20.156Z,23.44
2017-03-03T06:41:01.810Z,23.55
2017-03-03T06:41:42.287Z,23.56
2017-03-03T06:42:22.800Z,23.56
2017-03-03T06:43:03.280Z,23.56
2017-03-03T06:43:43.795Z,23.53
2017-03-03T06:44:24.261Z,23.56
2017-03-03T06:45:04.769Z,23.56
2017-03-03T06:45:45.277Z,23.57
2017-03-03T06:46:25.773Z,23.7
2017-03-03T06:47:06.269Z,23.59
2017-03-03T06:47:46.760Z,23.71
2017-03-03T06:48:27.244Z,23.72
2017-03-03T06:49:07.742Z,23.71
2017-03-03T06:49:48.247Z,23.72
2017-03-03T06:50:28.732Z,23.72
2017-03-03T06:51:09.238Z,23.72
2017-03-03T06:51:49.718Z,23.77
2017-03-03T06:52:30.204Z,23.79
2017-03-03T06:53:10.696Z,23.84
2017-03-03T06:53:51.177Z,23.81
2017-03-03T06:54:31.756Z,23.85
2017-03-03T06:55:12.262Z,23.87
2017-03-03T06:55:52.994Z,23.96
2017-03-03T06:56:33.490Z,23.99
2017-03-03T06:57:13.994Z,23.99
2017-03-03T06:57:54.476Z,24.03
2017-03-03T06:58:34.982Z,24.04
2017-03-03T06:59:15.842Z,24.07
2017-03-03T06:59:56.319Z,24.04
2017-03-03T07:00:36.813Z,24.02
2017-03-03T07:01:17.333Z,24.08
2017-03-03T07:01:57.848Z,24.15
2017-03-03T07:02:38.326Z,24.19
2017-03-03T07:03:18.851Z,24.19
2017-03-03T07:03:59.316Z,24.29
2017-03-03T07:04:39.836Z,24.3
2017-03-03T07:05:20.315Z,24.32
2017-03-03T07:06:00.843Z,24.34
2017-03-03T07:06:41.329Z,24.34
2017-03-03T07:07:21.848Z,24.33
2017-03-03T07:08:02.324Z,24.32
2017-03-03T07:08:42.802Z,24.33
2017-03-03T07:09:23.289Z,24.3
2017-03-03T07:10:03.784Z,24.3
2017-03-03T07:10:44.281Z,24.33
2017-03-03T07:11:24.767Z,24.32
2017-03-03T07:12:05.264Z,24.32
2017-03-03T07:12:45.752Z,24.3
2017-03-03T07:13:26.248Z,24.29
2017-03-03T07:14:06.734Z,24.32
2017-03-03T07:14:47.229Z,24.27
2017-03-03T07:15:27.757Z,24.3
2017-03-03T07:16:08.240Z,24.26
2017-03-03T07:16:48.732Z,24.3
2017-03-03T07:17:29.221Z,24.29
2017-03-03T07:18:09.769Z,24.3
2017-03-03T07:18:50.192Z,24.24
2017-03-03T07:19:30.732Z,24.37
2017-03-03T07:20:13.093Z,24.48
2017-03-03T07:20:54.107Z,24.48
2017-03-03T07:21:34.117Z,24.46
2017-03-03T07:22:14.600Z,24.64
2017-03-03T07:22:55.083Z,24.49
2017-03-03T07:23:35.572Z,24.58
2017-03-03T07:24:16.058Z,24.55
2017-03-03T07:24:56.562Z,24.67
2017-03-03T07:25:37.043Z,24.61
2017-03-03T07:26:17.526Z,24.67
2017-03-03T07:26:58.027Z,24.7
2017-03-03T07:27:38.540Z,24.67
2017-03-03T07:28:19.036Z,24.64
2017-03-03T07:28:59.518Z,24.66
2017-03-03T07:29:40.014Z,24.67
2017-03-03T07:30:20.504Z,24.7
2017-03-03T07:31:01.009Z,24.69
2017-03-03T07:31:41.490Z,24.75
2017-03-03T07:32:21.991Z,24.85
2017-03-03T07:33:02.482Z,24.8
2017-03-03T07:33:42.984Z,24.85
2017-03-03T07:34:23.557Z,24.82
2017-03-03T07:35:04.054Z,24.78
2017-03-03T07:35:44.556Z,24.8
2017-03-03T07:36:25.799Z,24.77
2017-03-03T07:37:06.293Z,24.92
2017-03-03T07:37:46.780Z,24.92
2017-03-03T07:38:27.290Z,24.96
2017-03-03T07:39:07.799Z,24.96
2017-03-03T07:39:48.289Z,24.93
2017-03-03T07:40:28.799Z,25.04
2017-03-03T07:41:09.295Z,25.02
2017-03-03T07:41:49.791Z,25.07
2017-03-03T07:42:30.281Z,25.09
2017-03-03T07:43:11.605Z,25.09
2017-03-03T07:43:53.030Z,25.09
2017-03-03T07:44:32.597Z,25.11
2017-03-03T07:45:13.101Z,25.12
2017-03-03T07:45:53.602Z,25.19
2017-03-03T07:46:34.116Z,25.14
2017-03-03T07:47:14.681Z,25.17
2017-03-03T07:47:55.182Z,25.22
2017-03-03T07:48:35.672Z,25.22
2017-03-03T07:49:16.184Z,25.14
2017-03-03T07:49:56.674Z,25.23
2017-03-03T07:50:37.180Z,25.27
2017-03-03T07:51:17.660Z,25.32
2017-03-03T07:51:58.140Z,25.32
2017-03-03T07:52:38.647Z,25.3
2017-03-03T07:53:19.143Z,25.38
2017-03-03T07:53:59.644Z,25.42
2017-03-03T07:54:40.135Z,25.32
2017-03-03T07:55:20.625Z,25.39
2017-03-03T07:56:01.109Z,25.47
2017-03-03T07:56:42.538Z,25.48
2017-03-03T07:57:22.105Z,25.39
2017-03-03T07:58:02.620Z,25.45
2017-03-03T07:58:43.112Z,25.44
2017-03-03T07:59:23.623Z,25.45
2017-03-03T08:00:04.106Z,25.51
2017-03-03T08:00:44.611Z,25.41
2017-03-03T08:01:25.089Z,25.44
2017-03-03T08:02:05.632Z,25.48
2017-03-03T08:02:46.131Z,25.48
2017-03-03T08:03:26.627Z,25.49
2017-03-03T08:04:07.130Z,25.52
2017-03-03T08:04:47.613Z,25.49
2017-03-03T08:05:28.111Z,25.52
2017-03-03T08:06:08.695Z,25.6
2017-03-03T08:06:49.192Z,25.52
2017-03-03T08:07:29.685Z,25.56
2017-03-03T08:08:10.178Z,25.52
2017-03-03T08:08:50.687Z,25.64
2017-03-03T08:09:31.179Z,25.66
2017-03-03T08:10:11.690Z,25.67
2017-03-03T08:10:52.175Z,25.69
2017-03-03T08:11:32.690Z,25.64
2017-03-03T08:12:13.183Z,25.74
2017-03-03T08:12:53.686Z,25.69
2017-03-03T08:13:34.183Z,25.66
2017-03-03T08:14:14.677Z,25.66
2017-03-03T08:14:55.174Z,25.67
2017-03-03T08:15:35.954Z,25.66
2017-03-03T08:16:16.462Z,25.66
2017-03-03T08:16:56.966Z,25.66
2017-03-03T08:17:37.461Z,25.66
2017-03-03T08:18:17.960Z,25.69
2017-03-03T08:18:58.556Z,25.7
2017-03-03T08:19:39.039Z,25.78
2017-03-03T08:20:19.524Z,25.79
2017-03-03T08:21:00.017Z,25.74
2017-03-03T08:21:40.526Z,25.75
2017-03-03T08:22:21.034Z,25.74
2017-03-03T08:23:01.529Z,25.71
2017-03-03T08:23:42.036Z,25.79
2017-03-03T08:24:22.536Z,25.82
2017-03-03T08:25:03.165Z,25.84
2017-03-03T08:25:43.656Z,25.84
2017-03-03T08:26:24.138Z,25.85
2017-03-03T08:27:04.652Z,25.82
2017-03-03T08:27:45.132Z,25.85
2017-03-03T08:28:25.615Z,25.85
2017-03-03T08:29:06.105Z,25.85
2017-03-03T08:29:46.600Z,25.79
2017-03-03T08:30:27.098Z,25.82
2017-03-03T08:31:08.166Z,25.78
2017-03-03T08:31:48.650Z,25.78
2017-03-03T08:32:29.162Z,25.84
2017-03-03T08:33:09.743Z,25.82
2017-03-03T08:33:50.340Z,25.84
2017-03-03T08:34:30.853Z,25.85
2017-03-03T08:35:11.346Z,25.81
2017-03-03T08:35:51.842Z,25.86
2017-03-03T08:36:32.332Z,25.81
2017-03-03T08:37:12.842Z,25.82
2017-03-03T08:37:53.322Z,25.88
2017-03-03T08:38:33.812Z,25.89
2017-03-03T08:39:14.305Z,25.91
2017-03-03T08:39:54.814Z,25.88
2017-03-03T08:40:35.430Z,25.86
2017-03-03T08:41:16.054Z,25.85
2017-03-03T08:41:56.565Z,25.93
2017-03-03T08:42:37.044Z,25.93
2017-03-03T08:43:17.533Z,25.84
2017-03-03T08:43:58.040Z,25.97